Time,TemperatureF,DewpointF,PressureIn,WindDirection,WindDirectionDegrees,WindSpeedMPH,WindSpeedGustMPH,Humidity,HourlyPrecipIn,Conditions,Clouds,dailyrainin,SoftwareType,DateUTC
2013-01-19 00:03:00,30.3,23.0,30.35,North,5,0.0,0.0,73,0.00,,,0.00,weatherlink.com 1.10,2013-01-19 08:03:00,
2013-01-19 00:15:00,31.1,22.0,30.35,North,5,0.0,1.0,70,0.00,,,0.00,weatherlink.com 1.10,2013-01-19 08:15:00,
2013-01-19 00:30:00,30.9,22.0,30.35,North,5,0.0,0.0,70,0.00,,,0.00,weatherlink.com 1.10,2013-01-19 08:30:00,
2013-01-19 00:45:00,30.4,22.0,30.35,North,5,0.0,0.0,71,0.00,,,0.00,weatherlink.com 1.10,2013-01-19 08:45:00,
2013-01-19 01:00:00,30.2,22.0,30.35,North,5,0.0,0.0,70,0.00,,,0.00,weatherlink.com 1.10,2013-01-19 09:00:00,
2013-01-19 01:15:00,30.7,22.0,30.35,North,5,0.0,0.0,69,0.00,,,0.00,weatherlink.com 1.10,2013-01-19 09:15:00,
2013-01-19 01:31:00,30.0,21.0,30.36,North,5,0.0,0.0,70,0.00,,,0.00,weatherlink.com 1.10,2013-01-19 09:31:00,
2013-01-19 01:46:00,29.1,21.0,30.36,North,5,0.0,0.0,72,0.00,,,0.00,weatherlink.com 1.10,2013-01-19 09:46:00,
2013-01-19 02:01:00,28.8,21.0,30.36,North,5,0.0,0.0,73,0.00,,,0.00,weatherlink.com 1.10,2013-01-19 10:01:00,
2013-01-19 02:16:00,28.0,21.0,30.36,North,5,0.0,0.0,74,0.00,,,0.00,weatherlink.com 1.10,2013-01-19 10:16:00,
2013-01-19 02:31:00,26.2,20.0,30.37,North,360,0.0,0.0,77,0.00,,,0.00,weatherlink.com 1.10,2013-01-19 10:31:00,
2013-01-19 02:47:00,24.9,19.0,30.37,North,360,0.0,0.0,79,0.00,,,0.00,weatherlink.com 1.10,2013-01-19 10:47:00,
2013-01-19 03:02:00,24.5,19.0,30.37,North,360,0.0,0.0,81,0.00,,,0.00,weatherlink.com 1.10,2013-01-19 11:02:00,
2013-01-19 04:49:00,24.0,19.0,30.36,North,360,0.0,0.0,80,0.00,,,0.00,weatherlink.com 1.10,2013-01-19 12:49:00,
2013-01-19 05:04:00,24.0,19.0,30.36,North,5,0.0,0.0,80,0.00,,,0.00,weatherlink.com 1.10,2013-01-19 13:04:00,
2013-01-19 05:19:00,24.3,19.0,30.36,North,360,0.0,0.0,79,0.00,,,0.00,weatherlink.com 1.10,2013-01-19 13:19:00,
2013-01-19 05:34:00,23.6,18.0,30.37,North,360,0.0,0.0,80,0.00,,,0.00,weatherlink.com 1.10,2013-01-19 13:34:00,
2013-01-19 05:49:00,23.8,19.0,30.37,North,5,0.0,0.0,80,0.00,,,0.00,weatherlink.com 1.10,2013-01-19 13:49:00,
2013-01-19 06:04:00,23.5,19.0,30.38,North,5,0.0,0.0,81,0.00,,,0.00,weatherlink.com 1.10,2013-01-19 14:04:00,
2013-01-19 06:19:00,23.4,18.0,30.38,North,5,0.0,0.0,80,0.00,,,0.00,weatherlink.com 1.10,2013-01-19 14:19:00,
2013-01-19 06:34:00,23.7,19.0,30.38,North,360,0.0,0.0,81,0.00,,,0.00,weatherlink.com 1.10,2013-01-19 14:34:00,
2013-01-19 06:49:00,24.7,19.0,30.38,North,5,0.0,0.0,79,0.00,,,0.00,weatherlink.com 1.10,2013-01-19 14:49:00,
2013-01-19 07:05:00,24.3,19.0,30.38,North,5,0.0,0.0,79,0.00,,,0.00,weatherlink.com 1.10,2013-01-19 15:05:00,
2013-01-19 07:19:00,23.6,18.0,30.38,North,5,0.0,0.0,80,0.00,,,0.00,weatherlink.com 1.10,2013-01-19 15:19:00,
2013-01-19 07:35:00,22.8,18.0,30.38,North,5,0.0,0.0,80,0.00,,,0.00,weatherlink.com 1.10,2013-01-19 15:35:00,
2013-01-19 07:49:00,22.9,18.0,30.38,North,360,0.0,0.0,81,0.00,,,0.00,weatherlink.com 1.10,2013-01-19 15:49:00,
2013-01-19 08:05:00,24.6,19.0,30.39,North,360,3.0,4.0,79,0.00,,,0.00,weatherlink.com 1.10,2013-01-19 16:05:00,
2013-01-19 08:20:00,25.7,20.0,30.39,North,360,0.0,3.0,79,0.00,,,0.00,weatherlink.com 1.10,2013-01-19 16:20:00,
2013-01-19 08:38:00,26.5,21.0,30.40,North,360,0.0,0.0,79,0.00,,,0.00,weatherlink.com 1.10,2013-01-19 16:38:00,
2013-01-19 08:50:00,27.7,21.0,30.40,North,5,0.0,0.0,77,0.00,,,0.00,weatherlink.com 1.10,2013-01-19 16:50:00,
2013-01-19 09:05:00,31.0,23.0,30.40,North,5,0.0,0.0,72,0.00,,,0.00,weatherlink.com 1.10,2013-01-19 17:05:00,
2013-01-19 09:23:00,33.6,25.0,30.41,North,360,0.0,0.0,71,0.00,,,0.00,weatherlink.com 1.10,2013-01-19 17:23:00,
2013-01-19 09:36:00,35.5,25.0,30.41,North,5,0.0,0.0,67,0.00,,,0.00,weatherlink.com 1.10,2013-01-19 17:36:00,
2013-01-19 10:06:00,39.8,26.0,30.41,North,360,0.0,0.0,58,0.00,,,0.00,weatherlink.com 1.10,2013-01-19 18:06:00,
2013-01-19 10:37:00,43.8,26.0,30.41,North,5,0.0,0.0,50,0.00,,,0.00,weatherlink.com 1.10,2013-01-19 18:37:00,
2013-01-19 10:52:00,44.5,27.0,30.40,North,360,0.0,0.0,50,0.00,,,0.00,weatherlink.com 1.10,2013-01-19 18:52:00,
2013-01-19 11:07:00,46.1,27.0,30.40,North,360,0.0,0.0,48,0.00,,,0.00,weatherlink.com 1.10,2013-01-19 19:07:00,
2013-01-19 11:22:00,46.9,27.0,30.39,North,5,0.0,1.0,46,0.00,,,0.00,weatherlink.com 1.10,2013-01-19 19:22:00,
2013-01-19 11:37:00,47.8,28.0,30.38,North,360,0.0,1.0,46,0.00,,,0.00,weatherlink.com 1.10,2013-01-19 19:37:00,
2013-01-19 11:52:00,48.4,28.0,30.38,North,360,0.0,3.0,45,0.00,,,0.00,weatherlink.com 1.10,2013-01-19 19:52:00,
2013-01-19 12:09:00,49.1,28.0,30.37,North,5,0.0,1.0,45,0.00,,,0.00,weatherlink.com 1.10,2013-01-19 20:09:00,
2013-01-19 12:22:00,49.1,28.0,30.37,North,5,0.0,3.0,44,0.00,,,0.00,weatherlink.com 1.10,2013-01-19 20:22:00,
2013-01-19 12:39:00,49.7,28.0,30.36,North,360,0.0,0.0,43,0.00,,,0.00,weatherlink.com 1.10,2013-01-19 20:39:00,
2013-01-19 13:09:00,50.8,28.0,30.35,North,360,0.0,3.0,42,0.00,,,0.00,weatherlink.com 1.10,2013-01-19 21:09:00,
2013-01-19 13:24:00,51.2,30.0,30.34,North,5,0.0,2.0,44,0.00,,,0.00,weatherlink.com 1.10,2013-01-19 21:24:00,
2013-01-19 13:39:00,52.2,29.0,30.34,North,5,0.0,1.0,41,0.00,,,0.00,weatherlink.com 1.10,2013-01-19 21:39:00,
2013-01-19 13:54:00,53.2,29.0,30.33,North,5,0.0,2.0,40,0.00,,,0.00,weatherlink.com 1.10,2013-01-19 21:54:00,
2013-01-19 14:09:00,53.8,29.0,30.33,North,5,0.0,0.0,39,0.00,,,0.00,weatherlink.com 1.10,2013-01-19 22:09:00,
2013-01-19 14:24:00,54.0,28.0,30.32,North,5,0.0,1.0,37,0.00,,,0.00,weatherlink.com 1.10,2013-01-19 22:24:00,
2013-01-19 14:40:00,53.5,29.0,30.32,North,5,0.0,3.0,39,0.00,,,0.00,weatherlink.com 1.10,2013-01-19 22:40:00,
2013-01-19 14:54:00,53.2,29.0,30.31,North,360,0.0,2.0,40,0.00,,,0.00,weatherlink.com 1.10,2013-01-19 22:54:00,
2013-01-19 15:10:00,54.0,29.0,30.31,North,5,0.0,0.0,38,0.00,,,0.00,weatherlink.com 1.10,2013-01-19 23:10:00,
2013-01-19 15:25:00,53.8,30.0,30.31,North,5,0.0,1.0,40,0.00,,,0.00,weatherlink.com 1.10,2013-01-19 23:25:00,
2013-01-19 15:40:00,54.2,31.0,30.31,North,360,0.0,1.0,41,0.00,,,0.00,weatherlink.com 1.10,2013-01-19 23:40:00,
2013-01-19 15:55:00,53.3,30.0,30.31,North,5,0.0,0.0,41,0.00,,,0.00,weatherlink.com 1.10,2013-01-19 23:55:00,
2013-01-19 16:10:00,51.8,32.0,30.31,North,5,0.0,0.0,48,0.00,,,0.00,weatherlink.com 1.10,2013-01-20 00:10:00,
2013-01-19 16:26:00,50.2,32.0,30.31,North,360,0.0,0.0,49,0.00,,,0.00,weatherlink.com 1.10,2013-01-20 00:26:00,
2013-01-19 16:40:00,49.3,31.0,30.31,North,5,0.0,0.0,49,0.00,,,0.00,weatherlink.com 1.10,2013-01-20 00:40:00,
2013-01-19 16:56:00,46.3,28.0,30.31,North,5,0.0,0.0,50,0.00,,,0.00,weatherlink.com 1.10,2013-01-20 00:56:00,
2013-01-19 19:12:00,35.2,25.0,30.33,North,360,0.0,0.0,67,0.00,,,0.00,weatherlink.com 1.10,2013-01-20 03:12:00,
2013-01-19 19:27:00,34.4,26.0,30.34,North,5,0.0,0.0,70,0.00,,,0.00,weatherlink.com 1.10,2013-01-20 03:27:00,
2013-01-19 19:42:00,35.0,25.0,30.34,North,5,0.0,0.0,67,0.00,,,0.00,weatherlink.com 1.10,2013-01-20 03:42:00,
2013-01-19 19:59:00,32.3,25.0,30.35,North,5,0.0,0.0,75,0.00,,,0.00,weatherlink.com 1.10,2013-01-20 03:59:00,
2013-01-19 20:14:00,31.2,25.0,30.36,North,5,0.0,0.0,78,0.00,,,0.00,weatherlink.com 1.10,2013-01-20 04:14:00,
2013-01-19 20:29:00,31.2,25.0,30.36,North,360,0.0,0.0,78,0.00,,,0.00,weatherlink.com 1.10,2013-01-20 04:29:00,
2013-01-19 20:44:00,31.2,25.0,30.37,North,5,0.0,0.0,78,0.00,,,0.00,weatherlink.com 1.10,2013-01-20 04:44:00,
2013-01-19 20:59:00,31.5,25.0,30.37,North,5,0.0,0.0,78,0.00,,,0.00,weatherlink.com 1.10,2013-01-20 04:59:00,
2013-01-19 21:14:00,30.5,25.0,30.37,North,360,0.0,0.0,80,0.00,,,0.00,weatherlink.com 1.10,2013-01-20 05:14:00,
2013-01-19 21:29:00,31.1,25.0,30.38,North,5,0.0,2.0,79,0.00,,,0.00,weatherlink.com 1.10,2013-01-20 05:29:00,
2013-01-19 21:44:00,30.4,25.0,30.38,North,5,0.0,0.0,80,0.00,,,0.00,weatherlink.com 1.10,2013-01-20 05:44:00,
2013-01-19 21:59:00,29.6,24.0,30.39,North,5,0.0,0.0,81,0.00,,,0.00,weatherlink.com 1.10,2013-01-20 05:59:00,
2013-01-19 22:14:00,28.8,24.0,30.39,North,5,0.0,0.0,82,0.00,,,0.00,weatherlink.com 1.10,2013-01-20 06:14:00,
2013-01-19 22:29:00,28.3,24.0,30.39,North,5,0.0,0.0,84,0.00,,,0.00,weatherlink.com 1.10,2013-01-20 06:29:00,
2013-01-19 22:44:00,28.3,24.0,30.40,North,360,0.0,0.0,84,0.00,,,0.00,weatherlink.com 1.10,2013-01-20 06:44:00,
2013-01-19 22:59:00,28.1,24.0,30.40,North,360,0.0,0.0,83,0.00,,,0.00,weatherlink.com 1.10,2013-01-20 06:59:00,
2013-01-19 23:14:00,26.7,22.0,30.40,North,360,0.0,0.0,83,0.00,,,0.00,weatherlink.com 1.10,2013-01-20 07:14:00,
2013-01-19 23:30:00,26.5,23.0,30.41,North,360,0.0,4.0,85,0.00,,,0.00,weatherlink.com 1.10,2013-01-20 07:30:00,
2013-01-19 23:45:00,27.2,23.0,30.41,North,5,0.0,0.0,85,0.00,,,0.00,weatherlink.com 1.10,2013-01-20 07:45:00,